Time;durP1;ratioP1;P1;durP2;ratioP2;P2;SDS_P1;SDS_P2;PMS_P1;PMS_P2;Temp;Humidity;BMP_temperature;BMP_pressure;BME280_temperature;BME280_humidity;BME280_pressure;Samples;Min_cycle;Max_cycle;Signal;HPM_P1;HPM_P2
2021/05/12 00:00:09;;;;;;;25.63;14.07;;;12.80;99.90;;;;;;5047152;28;20200;-69
2021/05/12 00:02:35;;;;;;;16.23;13.03;;;12.70;99.90;;;;;;5046957;28;20169;-69
2021/05/12 00:05:00;;;;;;;21.70;13.37;;;12.80;99.90;;;;;;5047325;28;20189;-69
2021/05/12 00:07:26;;;;;;;14.53;13.03;;;12.70;99.90;;;;;;5044745;28;20161;-69
2021/05/12 00:09:52;;;;;;;14.60;13.07;;;12.80;99.90;;;;;;5046985;28;20173;-69
2021/05/12 00:12:18;;;;;;;24.23;14.20;;;12.90;99.90;;;;;;5047000;28;20158;-70
2021/05/12 00:14:43;;;;;;;19.50;14.53;;;12.90;99.90;;;;;;5047081;28;20445;-69
2021/05/12 00:17:11;;;;;;;21.30;14.93;;;12.90;99.90;;;;;;5044160;28;20169;-69
2021/05/12 00:19:37;;;;;;;19.73;15.23;;;12.90;99.90;;;;;;5046919;28;20180;-69
2021/05/12 00:22:28;;;;;;;17.30;14.37;;;13.00;99.90;;;;;;5046629;28;20157;-69
2021/05/12 00:24:49;;;;;;;18.33;15.23;;;12.80;99.90;;;;;;5046633;28;20197;-69
2021/05/12 00:27:14;;;;;;;19.10;14.50;;;12.60;99.90;;;;;;5043025;28;20184;-69
2021/05/12 00:29:40;;;;;;;19.30;14.43;;;12.30;99.90;;;;;;5046828;28;20197;-69
2021/05/12 00:32:06;;;;;;;19.00;14.60;;;12.50;99.90;;;;;;5046139;28;20173;-69
2021/05/12 00:34:31;;;;;;;22.97;16.27;;;12.60;99.90;;;;;;5046920;28;20162;-69
2021/05/12 00:36:57;;;;;;;25.43;17.40;;;12.80;99.90;;;;;;5043959;28;20180;-69
2021/05/12 00:39:22;;;;;;;23.80;16.83;;;13.00;99.90;;;;;;5046367;28;20637;-69
2021/05/12 00:41:48;;;;;;;24.10;17.03;;;13.00;99.90;;;;;;5046595;28;20630;-69
2021/05/12 00:44:19;;;;;;;25.10;17.07;;;12.90;99.90;;;;;;5046524;28;20158;-69
2021/05/12 00:46:51;;;;;;;21.13;15.20;;;12.60;99.90;;;;;;5043675;28;20212;-69
2021/05/12 00:49:17;;;;;;;31.57;15.90;;;12.40;99.90;;;;;;5046518;28;20157;-69
2021/05/12 00:51:44;;;;;;;25.50;15.83;;;12.50;99.90;;;;;;5046358;28;20165;-69
2021/05/12 00:54:11;;;;;;;31.00;16.40;;;12.30;99.90;;;;;;5046213;28;20169;-69
2021/05/12 00:56:42;;;;;;;22.30;15.83;;;12.40;99.90;;;;;;5043777;28;20192;-69
2021/05/12 00:59:08;;;;;;;19.43;13.70;;;12.30;99.90;;;;;;5046022;28;20180;-69
2021/05/12 01:01:35;;;;;;;24.43;15.17;;;12.30;99.90;;;;;;5045830;28;20181;-69
2021/05/12 01:04:01;;;;;;;26.80;15.33;;;12.10;99.90;;;;;;5028412;28;20622;-69
2021/05/12 01:06:36;;;;;;;17.93;13.13;;;11.90;99.90;;;;;;5043574;28;20201;-69
2021/05/12 01:09:02;;;;;;;28.73;13.33;;;11.90;99.90;;;;;;5046229;28;20167;-69
2021/05/12 01:11:28;;;;;;;23.60;12.93;;;11.70;99.90;;;;;;5046122;28;20176;-69
2021/05/12 01:13:55;;;;;;;20.73;13.30;;;11.70;99.90;;;;;;5046082;28;20165;-69
2021/05/12 01:16:21;;;;;;;23.37;14.10;;;11.70;99.90;;;;;;5042782;28;20228;-69
2021/05/12 01:18:47;;;;;;;20.43;13.80;;;11.70;99.90;;;;;;5046003;28;20225;-69
2021/05/12 01:21:13;;;;;;;26.77;14.47;;;11.80;99.90;;;;;;5044516;28;20185;-69
2021/05/12 01:23:45;;;;;;;22.77;13.30;;;12.00;99.90;;;;;;5046028;28;20166;-69
2021/05/12 01:26:14;;;;;;;22.43;13.77;;;11.90;99.90;;;;;;5043186;28;20200;-69
2021/05/12 01:28:43;;;;;;;18.40;13.83;;;11.80;99.90;;;;;;5046019;28;20247;-69
2021/05/12 01:31:19;;;;;;;17.93;13.97;;;11.80;99.90;;;;;;5045400;28;20256;-69
2021/05/12 01:33:45;;;;;;;21.23;13.83;;;11.80;99.90;;;;;;5045247;28;20200;-69
2021/05/12 01:36:12;;;;;;;22.80;14.00;;;11.90;99.90;;;;;;5043232;28;20166;-69
2021/05/12 01:38:41;;;;;;;17.07;13.10;;;11.60;99.90;;;;;;5045824;28;20195;-69
2021/05/12 01:41:07;;;;;;;22.23;13.90;;;11.70;99.90;;;;;;5045565;28;20176;-69
2021/05/12 01:43:34;;;;;;;17.37;13.23;;;11.60;99.90;;;;;;5045866;28;20173;-69
2021/05/12 01:46:01;;;;;;;22.07;12.33;;;11.50;99.90;;;;;;5043069;28;20265;-69
2021/05/12 01:48:27;;;;;;;15.93;12.27;;;11.50;99.90;;;;;;5045514;28;20252;-69
2021/05/12 01:50:53;;;;;;;19.70;12.60;;;11.40;99.90;;;;;;5045513;28;20242;-69
2021/05/12 01:53:19;;;;;;;16.80;10.73;;;11.50;99.90;;;;;;5045536;28;20651;-69
2021/05/12 01:55:47;;;;;;;18.60;11.70;;;11.50;99.90;;;;;;5042891;28;20165;-69
2021/05/12 01:58:13;;;;;;;13.77;10.93;;;11.40;99.90;;;;;;5045471;28;20162;-69
2021/05/12 02:00:42;;;;;;;15.83;11.03;;;11.40;99.90;;;;;;5045516;28;20650;-69
2021/05/12 02:03:08;;;;;;;14.47;10.73;;;11.40;99.90;;;;;;5045008;28;20230;-69
2021/05/12 02:05:35;;;;;;;19.53;11.70;;;11.50;99.90;;;;;;5042902;28;20189;-69
2021/05/12 02:08:03;;;;;;;19.20;11.90;;;11.70;99.90;;;;;;5045530;28;20165;-69
2021/05/12 02:10:30;;;;;;;15.17;11.93;;;11.70;99.90;;;;;;5044179;28;20169;-69
2021/05/12 02:12:56;;;;;;;18.73;12.40;;;11.80;99.90;;;;;;5045542;28;20169;-69
2021/05/12 02:15:23;;;;;;;18.73;12.83;;;11.60;99.90;;;;;;5043034;28;20161;-69
2021/05/12 02:17:49;;;;;;;21.37;12.43;;;11.50;99.90;;;;;;5044836;28;20229;-69
2021/05/12 02:20:16;;;;;;;14.90;12.13;;;11.70;99.90;;;;;;5043994;28;20176;-69
2021/05/12 02:22:42;;;;;;;23.10;12.80;;;11.60;99.90;;;;;;5045451;28;20169;-69
2021/05/12 02:25:09;;;;;;;14.93;12.17;;;11.40;99.90;;;;;;5044583;28;20182;-69
2021/05/12 02:27:37;;;;;;;18.87;13.03;;;11.30;99.90;;;;;;5042510;28;20164;-69
2021/05/12 02:30:05;;;;;;;17.17;11.80;;;11.30;99.90;;;;;;5045073;28;20253;-69
2021/05/12 02:32:31;;;;;;;17.30;12.50;;;11.20;99.90;;;;;;5044943;28;20863;-69
2021/05/12 02:34:58;;;;;;;16.00;12.50;;;11.20;99.90;;;;;;5045435;28;20638;-69
2021/05/12 02:37:25;;;;;;;18.63;12.90;;;11.20;99.90;;;;;;5042523;28;20172;-70
2021/05/12 02:39:51;;;;;;;22.63;12.63;;;11.20;99.90;;;;;;5045151;28;20162;-69
2021/05/12 02:42:18;;;;;;;20.60;12.20;;;11.20;99.90;;;;;;5045146;28;20278;-69
2021/05/12 02:44:43;;;;;;;19.43;12.17;;;11.20;99.90;;;;;;5045161;28;20619;-69
2021/05/12 02:47:09;;;;;;;19.43;12.70;;;11.20;99.90;;;;;;5028218;28;20169;-69
2021/05/12 02:49:35;;;;;;;14.93;12.43;;;11.20;99.90;;;;;;5048806;28;20165;-69
2021/05/12 02:52:02;;;;;;;17.90;12.53;;;11.10;99.90;;;;;;5048896;28;20158;-69
2021/05/12 02:54:28;;;;;;;16.90;12.33;;;11.00;99.90;;;;;;5048641;28;20165;-69
2021/05/12 02:56:56;;;;;;;13.87;12.17;;;10.90;99.90;;;;;;5044688;28;20177;-70
2021/05/12 02:59:22;;;;;;;19.73;12.03;;;10.90;99.90;;;;;;5048557;28;20176;-69
2021/05/12 03:01:47;;;;;;;14.63;12.00;;;11.00;99.90;;;;;;5046888;28;20177;-69
2021/05/12 03:04:13;;;;;;;20.37;11.73;;;11.10;99.90;;;;;;5047287;28;20184;-69
2021/05/12 03:06:39;;;;;;;18.37;12.80;;;11.20;99.90;;;;;;5045959;28;20275;-69
2021/05/12 03:09:07;;;;;;;16.63;12.73;;;11.10;99.90;;;;;;5048331;28;20169;-69
2021/05/12 03:11:36;;;;;;;19.03;13.00;;;11.10;99.90;;;;;;5047135;28;20177;-69
2021/05/12 03:14:05;;;;;;;17.37;12.83;;;11.00;99.90;;;;;;5048369;28;20171;-69
2021/05/12 03:16:31;;;;;;;17.77;12.87;;;11.10;99.90;;;;;;5045490;28;20192;-69
2021/05/12 03:18:57;;;;;;;19.07;12.80;;;11.00;99.90;;;;;;5048334;28;20177;-69
2021/05/12 03:21:23;;;;;;;19.33;12.63;;;11.00;99.90;;;;;;5047991;28;20173;-69
2021/05/12 03:23:49;;;;;;;21.00;13.97;;;10.90;99.90;;;;;;5047091;28;20246;-69
2021/05/12 03:26:16;;;;;;;21.00;12.43;;;10.90;99.90;;;;;;5045361;28;20185;-69
2021/05/12 03:28:43;;;;;;;17.27;12.00;;;10.90;99.90;;;;;;5048165;28;20252;-70
2021/05/12 03:31:13;;;;;;;15.40;11.67;;;10.90;99.90;;;;;;5047632;28;20257;-69
2021/05/12 03:33:40;;;;;;;18.17;11.83;;;10.90;99.90;;;;;;5047583;28;20205;-69
2021/05/12 03:36:06;;;;;;;20.97;11.83;;;10.80;99.90;;;;;;5045245;28;20170;-70
2021/05/12 03:38:32;;;;;;;13.37;10.83;;;10.80;99.90;;;;;;5048000;28;20246;-69
2021/05/12 03:40:58;;;;;;;16.70;11.67;;;10.60;99.90;;;;;;5047865;28;20161;-70
2021/05/12 03:43:24;;;;;;;18.33;11.47;;;10.60;99.90;;;;;;5047844;28;20168;-69
2021/05/12 03:45:50;;;;;;;18.00;11.50;;;10.50;99.90;;;;;;5027527;28;20745;-69
2021/05/12 03:48:15;;;;;;;17.27;11.30;;;10.60;99.90;;;;;;5047382;28;20229;-69
2021/05/12 03:50:41;;;;;;;16.70;11.67;;;10.70;99.90;;;;;;5047658;28;20197;-69
2021/05/12 03:53:07;;;;;;;15.33;11.43;;;10.60;99.90;;;;;;5047639;28;20154;-69
2021/05/12 03:55:34;;;;;;;19.23;11.57;;;10.60;99.90;;;;;;5044391;28;20172;-69
2021/05/12 03:57:59;;;;;;;19.13;12.03;;;10.50;99.90;;;;;;5047293;28;20162;-69
2021/05/12 04:00:25;;;;;;;23.93;11.63;;;10.60;99.90;;;;;;5047010;28;20200;-70
2021/05/12 04:02:51;;;;;;;25.97;11.93;;;10.70;99.90;;;;;;5046914;28;20169;-69
2021/05/12 04:05:17;;;;;;;18.80;11.17;;;10.70;99.90;;;;;;5045457;28;20735;-69
2021/05/12 04:07:43;;;;;;;20.07;11.20;;;10.80;99.90;;;;;;5046416;28;20158;-69
2021/05/12 04:10:10;;;;;;;15.57;11.33;;;10.90;99.90;;;;;;5046747;28;20165;-69
2021/05/12 04:12:36;;;;;;;21.90;11.50;;;10.90;99.90;;;;;;5047074;28;20154;-69
2021/05/12 04:15:02;;;;;;;19.67;11.83;;;11.00;99.90;;;;;;5046994;28;20165;-69
2021/05/12 04:17:28;;;;;;;19.17;10.90;;;11.00;99.90;;;;;;5044105;28;20174;-70
2021/05/12 04:19:54;;;;;;;17.97;10.93;;;10.80;99.90;;;;;;5046700;28;20229;-69
2021/05/12 04:22:20;;;;;;;16.43;10.17;;;10.90;99.90;;;;;;5046965;28;20181;-70
2021/05/12 04:24:46;;;;;;;25.30;10.53;;;11.00;99.90;;;;;;5046659;28;20166;-69
2021/05/12 04:27:12;;;;;;;19.83;10.00;;;11.20;99.90;;;;;;5026317;28;20161;-69
2021/05/12 04:29:38;;;;;;;20.80;9.03;;;11.10;99.90;;;;;;5046694;28;20157;-70
2021/05/12 04:32:05;;;;;;;16.47;9.50;;;11.50;99.90;;;;;;5045902;28;20191;-70
2021/05/12 04:34:31;;;;;;;14.90;8.93;;;11.50;99.90;;;;;;5046849;28;20200;-70
2021/05/12 04:36:57;;;;;;;11.80;8.77;;;11.20;99.90;;;;;;5044041;28;20165;-70
2021/05/12 04:39:22;;;;;;;12.27;8.70;;;11.20;99.90;;;;;;5046579;28;20707;-70
2021/05/12 04:41:48;;;;;;;11.00;8.97;;;11.00;99.90;;;;;;5028601;28;20192;-69
2021/05/12 04:44:14;;;;;;;14.77;8.37;;;11.20;99.90;;;;;;5046404;28;20535;-70
2021/05/12 04:46:42;;;;;;;10.30;7.67;;;11.00;99.90;;;;;;5043559;28;20200;-70
2021/05/12 04:49:08;;;;;;;12.43;8.57;;;11.10;99.90;;;;;;5046270;28;20150;-70
2021/05/12 04:51:35;;;;;;;15.80;7.70;;;11.10;99.90;;;;;;5046313;28;20183;-70
2021/05/12 04:54:05;;;;;;;13.63;7.40;;;11.20;99.90;;;;;;5046381;28;20166;-70
2021/05/12 04:56:32;;;;;;;14.17;7.80;;;11.20;99.90;;;;;;5043758;28;20197;-69
2021/05/12 04:58:58;;;;;;;13.57;8.57;;;11.50;99.90;;;;;;5046066;28;20495;-69
2021/05/12 05:01:24;;;;;;;12.33;7.50;;;11.50;99.90;;;;;;5045754;28;20169;-69
2021/05/12 05:03:50;;;;;;;13.53;6.50;;;11.50;99.90;;;;;;5045636;28;20165;-69
2021/05/12 05:06:16;;;;;;;9.30;6.47;;;11.50;99.90;;;;;;5025452;28;20284;-69
2021/05/12 05:08:42;;;;;;;9.33;6.33;;;11.50;99.90;;;;;;5045427;28;20168;-69
2021/05/12 05:11:08;;;;;;;11.83;6.13;;;11.30;99.90;;;;;;5045793;28;20166;-69
2021/05/12 05:13:35;;;;;;;11.40;5.60;;;11.40;99.90;;;;;;5028471;28;20172;-69
2021/05/12 05:16:01;;;;;;;9.50;5.57;;;11.20;99.90;;;;;;5043668;28;20395;-69
2021/05/12 05:18:27;;;;;;;13.13;6.30;;;11.30;99.90;;;;;;5045806;28;20239;-69
2021/05/12 05:20:56;;;;;;;13.37;5.73;;;11.50;99.90;;;;;;5045799;28;20193;-69
2021/05/12 05:23:22;;;;;;;8.80;5.23;;;11.40;99.90;;;;;;5027917;28;20161;-69
2021/05/12 05:25:48;;;;;;;14.73;5.87;;;11.30;99.90;;;;;;5042960;28;20189;-69
2021/05/12 05:28:13;;;;;;;10.10;5.00;;;11.30;99.90;;;;;;5027721;28;20173;-69
2021/05/12 05:30:39;;;;;;;10.20;5.83;;;11.50;99.90;;;;;;5044608;28;20161;-69
2021/05/12 05:33:04;;;;;;;11.93;6.00;;;11.50;99.90;;;;;;5044677;28;20251;-70
2021/05/12 05:35:30;;;;;;;8.40;5.60;;;11.30;99.90;;;;;;5043271;28;20165;-69
2021/05/12 05:37:56;;;;;;;12.73;6.13;;;11.10;99.90;;;;;;5045780;28;20165;-69
2021/05/12 05:40:22;;;;;;;9.73;5.37;;;11.10;99.90;;;;;;5045428;28;20268;-69
2021/05/12 05:42:57;;;;;;;11.27;5.63;;;11.20;99.90;;;;;;5045646;28;20165;-70
2021/05/12 05:45:23;;;;;;;10.53;5.20;;;11.20;99.90;;;;;;5043049;28;20231;-69
2021/05/12 05:47:49;;;;;;;11.57;5.97;;;11.40;99.90;;;;;;5045175;28;20162;-69
2021/05/12 05:50:14;;;;;;;10.87;5.70;;;11.50;99.90;;;;;;5045319;28;20189;-69
2021/05/12 05:52:40;;;;;;;11.27;5.70;;;11.50;99.90;;;;;;5045603;28;20165;-69
2021/05/12 05:55:06;;;;;;;10.13;5.77;;;11.50;99.90;;;;;;5044748;28;20161;-69
2021/05/12 05:57:32;;;;;;;12.90;5.30;;;11.30;99.90;;;;;;5043544;28;20185;-69
2021/05/12 05:59:58;;;;;;;10.73;5.70;;;11.30;99.90;;;;;;5045433;28;20184;-69
2021/05/12 06:02:24;;;;;;;9.63;5.10;;;11.40;99.90;;;;;;5044819;28;20203;-69
2021/05/12 06:04:50;;;;;;;13.10;5.30;;;11.60;99.90;;;;;;5045272;28;20170;-69
2021/05/12 06:07:15;;;;;;;7.30;5.27;;;11.70;99.90;;;;;;5042684;28;20164;-69
2021/05/12 06:09:41;;;;;;;11.13;5.10;;;11.80;99.90;;;;;;5045491;28;20627;-69
2021/05/12 06:12:07;;;;;;;11.97;4.70;;;11.70;99.90;;;;;;5044950;28;20662;-70
2021/05/12 06:14:32;;;;;;;9.23;4.07;;;11.70;99.90;;;;;;5045534;28;20162;-69
2021/05/12 06:16:58;;;;;;;11.53;5.17;;;11.90;99.90;;;;;;5042426;28;20705;-69
2021/05/12 06:19:24;;;;;;;10.30;4.90;;;12.10;99.90;;;;;;5046423;28;20157;-69
2021/05/12 06:21:49;;;;;;;10.20;4.90;;;12.00;99.90;;;;;;5049213;28;20625;-69
2021/05/12 06:24:15;;;;;;;10.23;4.50;;;12.10;99.90;;;;;;5049032;28;20696;-69
2021/05/12 06:26:40;;;;;;;12.87;3.90;;;12.10;99.90;;;;;;5046305;28;20539;-69
2021/05/12 06:29:07;;;;;;;7.07;4.13;;;12.30;99.90;;;;;;5048968;28;20651;-69
2021/05/12 06:31:32;;;;;;;10.37;4.67;;;12.40;99.90;;;;;;5048891;28;20481;-70
2021/05/12 06:34:00;;;;;;;10.57;4.00;;;12.60;99.90;;;;;;5048753;28;20564;-69
2021/05/12 06:36:26;;;;;;;8.93;5.00;;;12.80;99.90;;;;;;5046276;28;20161;-69
2021/05/12 06:38:52;;;;;;;9.93;3.67;;;12.80;99.90;;;;;;5049041;28;20168;-69
2021/05/12 06:41:17;;;;;;;8.67;3.80;;;12.60;99.90;;;;;;5048644;28;20178;-70
2021/05/12 06:43:43;;;;;;;10.07;4.50;;;12.90;99.90;;;;;;5048892;28;20673;-69
2021/05/12 06:46:09;;;;;;;14.82;3.90;;;12.80;99.90;;;;;;5045994;28;20197;-69
2021/05/12 06:48:35;;;;;;;11.50;4.20;;;12.80;99.90;;;;;;5031029;28;20166;-69
2021/05/12 06:51:00;;;;;;;15.07;3.90;;;13.00;99.90;;;;;;5030826;28;20178;-69
2021/05/12 06:53:29;;;;;;;19.73;3.97;;;13.00;99.90;;;;;;5031134;28;20169;-69
2021/05/12 06:55:55;;;;;;;10.13;3.42;;;13.10;99.90;;;;;;5046026;28;20173;-69
2021/05/12 06:58:21;;;;;;;8.45;3.42;;;12.90;99.90;;;;;;5048374;28;20678;-69
2021/05/12 07:00:48;;;;;;;14.07;3.13;;;12.90;99.90;;;;;;5048392;28;20173;-69
2021/05/12 07:03:14;;;;;;;9.73;2.93;;;12.90;99.90;;;;;;5047971;28;20200;-70
2021/05/12 07:05:40;;;;;;;15.98;2.55;;;13.10;99.90;;;;;;5045872;28;20204;-69
2021/05/12 07:08:06;;;;;;;19.25;3.67;;;13.10;99.90;;;;;;5030458;28;20207;-70
2021/05/12 07:10:31;;;;;;;11.05;3.40;;;13.10;99.90;;;;;;5048264;28;20176;-69
2021/05/12 07:12:58;;;;;;;20.90;3.50;;;13.20;99.90;;;;;;5048512;28;20162;-70
2021/05/12 07:15:23;;;;;;;11.27;2.40;;;13.20;99.90;;;;;;5045772;28;20256;-69
2021/05/12 07:17:49;;;;;;;12.82;3.28;;;13.00;99.90;;;;;;5047794;28;20173;-70
2021/05/12 07:20:16;;;;;;;15.95;2.85;;;13.00;99.90;;;;;;5029919;28;20195;-69
2021/05/12 07:22:42;;;;;;;9.88;2.15;;;13.20;99.90;;;;;;5048202;28;20233;-69
2021/05/12 07:25:08;;;;;;;10.68;2.35;;;13.30;99.90;;;;;;5045977;28;20275;-69
2021/05/12 07:27:34;;;;;;;10.45;2.40;;;13.20;99.90;;;;;;5046276;28;20166;-70
2021/05/12 07:30:00;;;;;;;15.60;2.58;;;13.40;99.90;;;;;;5048079;28;20173;-70
2021/05/12 07:32:26;;;;;;;13.65;2.70;;;13.60;99.90;;;;;;5046127;28;20216;-70
2021/05/12 07:34:52;;;;;;;10.77;2.92;;;13.80;99.90;;;;;;5047718;28;20195;-70
2021/05/12 07:37:21;;;;;;;8.63;2.40;;;13.70;99.90;;;;;;5027314;28;20192;-70
2021/05/12 07:39:47;;;;;;;13.63;3.38;;;13.60;99.90;;;;;;5047892;28;20158;-70
2021/05/12 07:42:13;;;;;;;11.35;3.20;;;13.60;99.90;;;;;;5047388;28;20166;-70
2021/05/12 07:44:40;;;;;;;13.45;2.83;;;13.50;99.90;;;;;;5047916;28;20216;-70
2021/05/12 07:47:05;;;;;;;23.73;3.10;;;13.70;99.90;;;;;;5044877;28;20197;-70
2021/05/12 07:49:31;;;;;;;13.48;2.92;;;13.70;99.90;;;;;;5047495;28;20169;-70
2021/05/12 07:51:57;;;;;;;11.98;2.97;;;14.00;99.90;;;;;;5047304;28;20312;-70
2021/05/12 07:54:22;;;;;;;13.77;3.22;;;14.20;99.90;;;;;;5047257;28;20158;-70
2021/05/12 07:56:48;;;;;;;18.25;3.40;;;14.30;99.90;;;;;;5026856;28;20193;-70
2021/05/12 07:59:15;;;;;;;15.85;3.17;;;14.20;99.90;;;;;;5047573;28;20158;-70
2021/05/12 08:01:43;;;;;;;21.88;3.80;;;14.10;99.90;;;;;;5047021;28;20165;-70
2021/05/12 08:04:09;;;;;;;13.25;2.97;;;14.20;99.90;;;;;;5046695;28;20180;-70
2021/05/12 08:06:34;;;;;;;14.40;3.08;;;14.20;99.90;;;;;;5026984;28;20197;-70
2021/05/12 08:09:03;;;;;;;20.25;3.35;;;14.10;99.90;;;;;;5047377;28;20161;-70
2021/05/12 08:11:29;;;;;;;11.10;2.88;;;14.10;99.90;;;;;;5047091;28;20631;-70
2021/05/12 08:13:55;;;;;;;13.95;3.22;;;14.10;99.90;;;;;;5047249;28;20252;-71
2021/05/12 08:16:21;;;;;;;21.65;4.10;;;14.00;99.90;;;;;;5044367;28;20361;-71
2021/05/12 08:18:47;;;;;;;16.73;3.13;;;14.10;99.90;;;;;;5028886;28;20184;-71
2021/05/12 08:21:13;;;;;;;12.88;2.92;;;14.30;99.90;;;;;;5028571;28;20173;-71
2021/05/12 08:23:38;;;;;;;12.45;3.13;;;14.30;99.90;;;;;;5047073;28;20165;-70
2021/05/12 08:26:04;;;;;;;25.02;3.42;;;14.40;99.90;;;;;;5026230;28;20231;-71
2021/05/12 08:28:30;;;;;;;21.85;4.07;;;14.40;99.90;;;;;;5047015;28;20162;-71
2021/05/12 08:30:57;;;;;;;16.65;2.80;;;14.60;99.90;;;;;;5046685;28;20234;-71
2021/05/12 08:33:23;;;;;;;11.02;2.72;;;15.00;99.90;;;;;;5046046;28;20208;-71
2021/05/12 08:35:49;;;;;;;12.57;3.10;;;15.30;99.90;;;;;;5026574;28;20170;-71
2021/05/12 08:38:17;;;;;;;14.23;3.05;;;15.20;99.90;;;;;;5046559;28;20187;-70
2021/05/12 08:40:45;;;;;;;19.35;3.00;;;15.30;99.90;;;;;;5046348;28;20256;-71
2021/05/12 08:43:13;;;;;;;9.75;2.70;;;15.10;99.90;;;;;;5028417;28;20161;-71
2021/05/12 08:45:42;;;;;;;14.05;2.60;;;15.40;99.90;;;;;;5043838;28;20622;-71
2021/05/12 08:48:12;;;;;;;20.05;2.95;;;15.70;99.90;;;;;;5028058;28;20176;-70
2021/05/12 08:50:38;;;;;;;12.57;2.92;;;15.90;99.90;;;;;;5046719;28;20166;-71
2021/05/12 08:53:05;;;;;;;17.65;2.78;;;15.90;99.90;;;;;;5046248;28;20284;-70
2021/05/12 08:55:32;;;;;;;19.90;3.05;;;16.00;99.90;;;;;;5043389;28;20162;-71
2021/05/12 08:57:58;;;;;;;10.63;2.97;;;16.40;99.90;;;;;;5045982;28;20162;-71
2021/05/12 09:00:24;;;;;;;9.75;2.90;;;16.40;99.90;;;;;;5027591;28;20218;-71
2021/05/12 09:02:51;;;;;;;12.02;2.45;;;16.80;99.90;;;;;;5045304;28;20171;-71
2021/05/12 09:05:18;;;;;;;10.60;2.63;;;16.90;99.90;;;;;;5044255;28;20193;-71
2021/05/12 09:07:44;;;;;;;14.38;3.50;;;17.10;99.90;;;;;;5045216;28;20156;-70
2021/05/12 09:10:10;;;;;;;12.30;2.60;;;17.20;99.90;;;;;;5045700;28;20162;-70
2021/05/12 09:12:56;;;;;;;12.10;2.38;;;17.30;99.90;;;;;;5045480;28;20683;-71
2021/05/12 09:15:26;;;;;;;7.85;2.08;;;17.40;99.90;;;;;;5043461;28;20920;-71
2021/05/12 09:17:53;;;;;;;16.77;2.80;;;17.00;99.90;;;;;;5045174;28;20177;-71
2021/05/12 09:20:19;;;;;;;11.95;2.28;;;16.60;99.90;;;;;;5045630;28;20162;-71
2021/05/12 09:23:09;;;;;;;11.23;2.22;;;16.50;99.90;;;;;;5046009;28;20169;-71
2021/05/12 09:25:37;;;;;;;15.15;2.75;;;16.50;99.90;;;;;;5042444;28;20460;-70
2021/05/12 09:28:09;;;;;;;12.05;2.67;;;16.40;99.90;;;;;;5045813;28;20157;-71
2021/05/12 09:30:38;;;;;;;9.15;2.78;;;16.40;99.90;;;;;;5045467;28;20170;-71
2021/05/12 09:33:06;;;;;;;8.50;2.42;;;16.60;99.90;;;;;;5044667;28;20620;-71
2021/05/12 09:35:39;;;;;;;11.25;2.63;;;16.90;99.90;;;;;;5043185;28;20162;-71
2021/05/12 09:38:17;;;;;;;16.23;3.13;;;16.80;99.90;;;;;;5045337;28;20169;-71
2021/05/12 09:40:43;;;;;;;11.13;2.90;;;17.20;99.90;;;;;;5045669;28;20244;-71
2021/05/12 09:43:08;;;;;;;6.25;1.95;;;17.60;99.90;;;;;;5045306;28;20164;-70
2021/05/12 09:45:38;;;;;;;13.40;2.55;;;17.80;99.90;;;;;;5042830;28;20228;-70
2021/05/12 09:48:05;;;;;;;12.45;2.03;;;17.70;99.90;;;;;;5045167;28;20169;-71
2021/05/12 09:50:37;;;;;;;10.30;2.33;;;17.50;99.90;;;;;;5045259;28;20165;-70
2021/05/12 09:53:05;;;;;;;14.50;2.67;;;17.20;99.90;;;;;;5045458;28;20165;-71
2021/05/12 09:55:39;;;;;;;7.28;2.40;;;17.10;99.90;;;;;;5048636;28;20293;-71
2021/05/12 09:58:11;;;;;;;15.27;3.00;;;17.10;99.90;;;;;;5051972;28;20173;-71
2021/05/12 10:00:42;;;;;;;11.57;2.40;;;17.40;99.90;;;;;;5051917;28;20173;-71
2021/05/12 10:03:11;;;;;;;7.22;2.05;;;17.80;99.90;;;;;;5051568;28;20180;-71
2021/05/12 10:05:50;;;;;;;6.50;1.92;;;18.10;99.90;;;;;;5049544;28;20784;-71
2021/05/12 10:08:27;;;;;;;13.48;2.33;;;18.00;99.90;;;;;;5051852;28;20172;-71
2021/05/12 10:11:11;;;;;;;8.40;2.28;;;18.00;99.90;;;;;;5051958;28;20168;-70
2021/05/12 10:13:37;;;;;;;14.88;2.20;;;18.00;99.90;;;;;;5050730;28;20168;-71
2021/05/12 10:16:05;;;;;;;7.05;2.15;;;18.40;99.90;;;;;;5031404;28;20172;-71
2021/05/12 10:18:32;;;;;;;14.80;2.88;;;19.00;99.90;;;;;;5051604;28;20763;-70
2021/05/12 10:21:00;;;;;;;11.55;2.17;;;19.50;99.90;;;;;;5051959;28;20179;-70
2021/05/12 10:23:26;;;;;;;8.85;2.10;;;19.40;99.90;;;;;;5034112;28;20165;-70
2021/05/12 10:25:53;;;;;;;9.77;2.22;;;19.10;99.90;;;;;;5048886;28;20224;-70
2021/05/12 10:28:19;;;;;;;14.45;2.78;;;18.90;99.90;;;;;;5051699;28;20162;-70
2021/05/12 10:30:49;;;;;;;9.77;2.35;;;18.60;99.90;;;;;;5051550;28;20162;-70
2021/05/12 10:33:16;;;;;;;9.32;2.28;;;18.20;99.90;;;;;;5050971;28;20240;-69
2021/05/12 10:35:43;;;;;;;10.82;2.22;;;18.00;99.90;;;;;;5049390;28;20154;-70
2021/05/12 10:38:31;;;;;;;11.23;2.47;;;18.00;99.90;;;;;;5051560;28;20165;-70
2021/05/12 10:40:57;;;;;;;8.77;2.22;;;17.50;99.90;;;;;;5051618;28;20165;-70
2021/05/12 10:43:29;;;;;;;13.95;2.53;;;17.50;99.90;;;;;;5051724;28;20224;-70
2021/05/12 10:46:21;;;;;;;7.60;2.38;;;17.40;99.90;;;;;;5049102;28;20227;-70
2021/05/12 10:48:48;;;;;;;8.15;1.92;;;17.30;99.90;;;;;;5051088;28;20189;-71
2021/05/12 10:51:24;;;;;;;9.63;2.20;;;17.70;99.90;;;;;;5051327;28;20180;-70
2021/05/12 10:53:51;;;;;;;13.20;2.15;;;17.90;99.90;;;;;;5033680;28;20164;-70
2021/05/12 10:56:19;;;;;;;13.25;2.15;;;17.80;99.90;;;;;;5048727;28;20173;-70
2021/05/12 10:58:59;;;;;;;8.10;2.15;;;17.90;99.90;;;;;;5051552;28;20165;-70
2021/05/12 11:01:40;;;;;;;9.80;2.38;;;18.10;99.90;;;;;;5051258;28;20173;-70
2021/05/12 11:04:10;;;;;;;12.50;2.08;;;18.50;99.90;;;;;;5050990;28;20203;-70
2021/05/12 11:06:39;;;;;;;10.93;2.67;;;18.80;99.90;;;;;;5045634;28;20620;-70
2021/05/12 11:09:14;;;;;;;7.80;2.72;;;19.30;99.90;;;;;;5048231;28;20698;-70
2021/05/12 11:11:46;;;;;;;11.10;3.10;;;19.30;99.90;;;;;;5048222;28;20559;-70
2021/05/12 11:14:28;;;;;;;8.18;3.00;;;19.40;99.90;;;;;;5048336;28;20161;-70
2021/05/12 11:17:10;;;;;;;11.05;2.83;;;18.90;99.90;;;;;;5045570;28;20165;-70
2021/05/12 11:19:41;;;;;;;7.65;3.08;;;18.90;99.90;;;;;;5048274;28;20726;-70
2021/05/12 11:33:27;;;;;;;8.15;2.42;;;17.70;99.90;;;;;;5047372;28;20243;-69
2021/05/12 11:35:59;;;;;;;13.85;3.28;;;16.90;99.90;;;;;;5045223;28;20657;-69
2021/05/12 11:38:25;;;;;;;10.23;2.67;;;15.60;99.90;;;;;;5047739;28;20169;-70
2021/05/12 11:41:20;;;;;;;9.73;2.20;;;14.40;99.90;;;;;;5047660;28;20177;-71
2021/05/12 11:43:54;;;;;;;7.10;2.20;;;13.60;99.90;;;;;;5047848;28;20193;-70
2021/05/12 11:46:31;;;;;;;15.63;3.13;;;13.10;99.90;;;;;;5044902;28;20199;-71
2021/05/12 11:49:09;;;;;;;8.10;3.42;;;12.90;99.90;;;;;;5047281;28;20177;-70
2021/05/12 11:51:47;;;;;;;17.80;3.88;;;13.20;99.90;;;;;;5047436;28;20233;-71
2021/05/12 11:54:20;;;;;;;15.23;3.60;;;13.30;99.90;;;;;;5047456;28;20162;-70
2021/05/12 11:56:52;;;;;;;7.85;3.10;;;13.20;99.90;;;;;;5027209;28;20227;-71
2021/05/12 11:59:21;;;;;;;15.63;3.17;;;13.10;99.90;;;;;;5047416;28;20171;-71
2021/05/12 12:01:56;;;;;;;9.75;2.85;;;13.10;99.90;;;;;;5029378;28;20643;-71
2021/05/12 12:04:35;;;;;;;9.07;2.75;;;13.20;99.90;;;;;;5046969;28;20181;-71
2021/05/12 12:07:01;;;;;;;15.95;3.00;;;13.40;99.90;;;;;;5044708;28;20193;-71
2021/05/12 12:09:27;;;;;;;9.88;3.10;;;13.70;99.90;;;;;;5047533;28;20198;-71
2021/05/12 12:11:55;;;;;;;9.18;2.50;;;14.10;99.90;;;;;;5047016;28;20157;-71
2021/05/12 12:14:28;;;;;;;13.18;2.05;;;14.30;99.90;;;;;;5029195;28;20391;-71
2021/05/12 12:16:54;;;;;;;6.68;1.90;;;14.70;99.90;;;;;;5044131;28;20165;-71
2021/05/12 12:19:20;;;;;;;5.85;2.00;;;15.20;99.90;;;;;;5046093;28;20262;-71
2021/05/12 12:21:48;;;;;;;6.07;1.40;;;15.70;99.90;;;;;;5046641;28;20635;-71
2021/05/12 12:24:18;;;;;;;5.88;1.35;;;16.10;99.90;;;;;;5028597;28;20180;-71
2021/05/12 12:26:53;;;;;;;4.65;1.40;;;16.10;99.90;;;;;;5044232;28;20189;-71
2021/05/12 12:29:30;;;;;;;5.97;1.42;;;16.20;99.90;;;;;;5046883;28;20230;-71
2021/05/12 12:32:00;;;;;;;3.65;1.23;;;16.20;99.90;;;;;;5046553;28;20173;-71
2021/05/12 12:34:36;;;;;;;3.80;1.42;;;16.20;99.90;;;;;;5046457;28;20201;-70
2021/05/12 12:37:12;;;;;;;6.85;1.58;;;16.40;99.90;;;;;;5026096;28;20168;-71
2021/05/12 12:39:48;;;;;;;3.72;1.20;;;17.00;99.90;;;;;;5046688;28;20187;-71
2021/05/12 12:42:17;;;;;;;4.43;0.98;;;17.40;99.90;;;;;;5046250;28;20169;-71
2021/05/12 12:44:45;;;;;;;5.72;1.10;;;17.50;99.90;;;;;;5046459;28;20175;-71
2021/05/12 12:47:16;;;;;;;4.18;1.30;;;17.60;99.90;;;;;;5043490;28;20251;-71
2021/05/12 12:50:11;;;;;;;3.90;1.30;;;17.40;99.90;;;;;;5028716;28;20172;-71